createdAt,value
2023-04-23T00:00:36.494Z,70.87
2023-04-23T00:03:10.216Z,71.23
2023-04-23T00:05:38.635Z,72.10
2023-04-23T00:08:07.034Z,72.17
2023-04-23T00:10:34.886Z,70.65
2023-04-23T00:13:02.663Z,73.33
2023-04-23T00:15:32.261Z,74.21
2023-04-23T00:17:59.823Z,72.57
2023-04-23T00:20:27.301Z,73.05
2023-04-23T00:22:54.824Z,71.34
2023-04-23T00:25:22.430Z,83.81
2023-04-23T00:27:49.850Z,72.41
2023-04-23T00:30:18.719Z,73.24
2023-04-23T00:32:47.673Z,74.64
2023-04-23T00:35:15.294Z,73.95
2023-04-23T00:37:42.734Z,76.29
2023-04-23T00:40:11.542Z,72.41
2023-04-23T00:42:39.732Z,72.83
2023-04-23T00:45:09.124Z,76.54
2023-04-23T00:47:37.003Z,76.73
2023-04-23T00:50:08.011Z,76.72
2023-04-23T00:52:35.906Z,80.94
2023-04-23T00:55:03.568Z,75.51
2023-04-23T00:57:31.956Z,79.13
2023-04-23T01:00:00.341Z,76.15
2023-04-23T01:02:30.351Z,75.50
2023-04-23T01:05:00.695Z,75.24
2023-04-23T01:07:29.638Z,73.17
2023-04-23T01:09:57.230Z,73.33
2023-04-23T01:12:24.852Z,71.93
2023-04-23T01:14:52.980Z,80.34
2023-04-23T01:17:21.398Z,74.62
2023-04-23T01:19:48.874Z,72.76
2023-04-23T01:22:18.006Z,74.43
2023-04-23T01:24:46.120Z,73.83
2023-04-23T01:27:13.689Z,72.65
2023-04-23T01:29:42.257Z,71.36
2023-04-23T01:32:09.739Z,72.27
2023-04-23T01:34:39.287Z,76.87
2023-04-23T01:37:07.083Z,73.02
2023-04-23T01:39:36.989Z,74.85
2023-04-23T01:42:07.011Z,72.73
2023-04-23T01:44:34.477Z,79.27
2023-04-23T01:47:02.008Z,73.69
2023-04-23T01:49:29.539Z,72.90
2023-04-23T01:51:56.971Z,72.93
2023-04-23T01:54:24.662Z,72.65
2023-04-23T01:56:54.756Z,72.57
2023-04-23T01:59:23.415Z,72.48
2023-04-23T02:01:51.374Z,73.44
2023-04-23T02:04:19.441Z,73.01
2023-04-23T02:06:50.148Z,73.58
2023-04-23T02:09:17.825Z,76.07
2023-04-23T02:11:45.404Z,75.02
2023-04-23T02:14:14.646Z,73.90
2023-04-23T02:16:42.892Z,72.67
2023-04-23T02:19:11.661Z,72.70
2023-04-23T02:21:39.583Z,72.87
2023-04-23T02:24:07.746Z,72.00
2023-04-23T02:26:35.217Z,75.84
2023-04-23T02:29:02.740Z,72.53
2023-04-23T02:31:31.687Z,72.35
2023-04-23T02:33:59.186Z,73.13
2023-04-23T02:36:28.554Z,73.59
2023-04-23T02:38:55.999Z,75.07
2023-04-23T02:41:23.444Z,72.63
2023-04-23T02:43:50.885Z,75.96
2023-04-23T02:46:18.335Z,75.34
2023-04-23T02:48:47.166Z,76.19
2023-04-23T02:51:15.234Z,75.86
2023-04-23T02:53:42.668Z,74.39
2023-04-23T02:56:10.192Z,74.89
2023-04-23T02:58:37.755Z,76.25
2023-04-23T03:01:05.948Z,77.18
2023-04-23T03:03:34.705Z,82.16
2023-04-23T03:06:04.652Z,83.96
2023-04-23T03:08:32.122Z,82.77
2023-04-23T03:10:59.686Z,84.04
2023-04-23T03:13:27.597Z,83.05
2023-04-23T03:15:56.311Z,84.26
2023-04-23T03:18:23.972Z,82.77
2023-04-23T03:20:51.463Z,83.11
2023-04-23T03:23:20.359Z,79.63
2023-04-23T03:25:47.849Z,79.84
2023-04-23T03:28:15.366Z,76.77
2023-04-23T03:30:43.035Z,78.20
2023-04-23T03:33:10.504Z,78.84
2023-04-23T03:35:37.992Z,80.26
2023-04-23T03:38:05.443Z,85.25
2023-04-23T03:40:34.261Z,86.12
2023-04-23T03:43:01.732Z,84.29
2023-04-23T03:45:29.157Z,87.01
2023-04-23T03:47:56.775Z,86.66
2023-04-23T03:50:24.282Z,87.95
2023-04-23T03:52:53.628Z,86.87
2023-04-23T03:55:21.455Z,80.47
2023-04-23T03:57:50.222Z,79.56
2023-04-23T04:00:18.289Z,81.83
2023-04-23T04:02:45.846Z,82.00
2023-04-23T04:05:13.744Z,82.75
2023-04-23T04:07:41.382Z,80.36
2023-04-23T04:10:09.267Z,81.41
2023-04-23T04:12:36.978Z,82.72
2023-04-23T04:15:06.901Z,82.42
2023-04-23T04:17:34.403Z,84.48
2023-04-23T04:20:01.887Z,82.39
2023-04-23T04:22:30.649Z,85.36
2023-04-23T04:24:58.298Z,86.27
2023-04-23T04:27:26.050Z,88.98
2023-04-23T04:29:53.573Z,86.26
2023-04-23T04:32:23.344Z,85.91
2023-04-23T04:34:51.016Z,87.17
2023-04-23T04:37:18.642Z,85.28
2023-04-23T04:39:46.111Z,84.07
2023-04-23T04:42:14.231Z,84.91
2023-04-23T04:44:43.442Z,83.95
2023-04-23T04:47:11.197Z,83.20
2023-04-23T04:49:40.180Z,83.40
2023-04-23T04:52:07.687Z,83.21
2023-04-23T04:54:35.140Z,82.16
2023-04-23T04:57:03.094Z,82.41
2023-04-23T04:59:30.648Z,83.91
2023-04-23T05:01:58.227Z,83.77
2023-04-23T05:04:25.860Z,84.37
2023-04-23T05:06:54.683Z,85.02
2023-04-23T05:09:22.207Z,86.07
2023-04-23T05:11:49.705Z,83.46
2023-04-23T05:14:17.245Z,83.45
2023-04-23T05:16:44.757Z,83.42
2023-04-23T05:19:12.219Z,83.24
2023-04-23T05:21:40.190Z,83.69
2023-04-23T05:24:09.085Z,88.00
2023-04-23T05:26:36.656Z,86.33
2023-04-23T05:29:04.106Z,85.01
2023-04-23T05:31:31.700Z,84.78
2023-04-23T05:33:59.155Z,84.36
2023-04-23T05:36:27.350Z,86.60
2023-04-23T05:38:54.839Z,83.96
2023-04-23T05:41:23.736Z,86.81
2023-04-23T05:43:51.165Z,86.30
2023-04-23T05:46:19.782Z,86.31
2023-04-23T05:48:47.304Z,88.45
2023-04-23T05:51:14.778Z,88.04
2023-04-23T05:53:42.223Z,86.14
2023-04-23T05:56:09.651Z,85.91
2023-04-23T05:58:38.844Z,85.18
2023-04-23T06:01:06.608Z,86.17
2023-04-23T06:03:37.486Z,86.83
2023-04-23T06:06:05.405Z,83.98
2023-04-23T06:08:32.901Z,86.63
2023-04-23T06:11:01.862Z,86.32
2023-04-23T06:13:30.743Z,88.63
2023-04-23T06:15:59.835Z,92.69
2023-04-23T06:18:27.531Z,91.53
2023-04-23T06:20:58.914Z,87.46
2023-04-23T06:23:26.325Z,88.56
2023-04-23T06:25:55.003Z,87.33
2023-04-23T06:28:22.471Z,86.61
2023-04-23T06:30:49.982Z,86.38
2023-04-23T06:33:18.810Z,85.96
2023-04-23T06:35:48.174Z,89.10
2023-04-23T06:38:15.740Z,84.83
2023-04-23T06:40:43.237Z,87.35
2023-04-23T06:43:10.849Z,88.44
2023-04-23T06:45:38.369Z,88.09
2023-04-23T06:48:05.888Z,85.55
2023-04-23T06:50:34.726Z,83.40
2023-04-23T06:53:02.295Z,84.21
2023-04-23T06:55:29.881Z,83.85
2023-04-23T06:57:57.734Z,85.13
2023-04-23T07:00:25.842Z,86.25
2023-04-23T07:02:53.494Z,85.27
2023-04-23T07:05:21.021Z,87.60
2023-04-23T07:07:49.798Z,86.40
2023-04-23T07:10:18.124Z,86.75
2023-04-23T07:12:45.653Z,88.09
2023-04-23T07:15:13.202Z,84.15
2023-04-23T07:17:41.367Z,88.14
2023-04-23T07:20:09.893Z,86.96
2023-04-23T07:22:37.259Z,86.13
2023-04-23T07:25:08.486Z,84.89
2023-04-23T07:27:36.276Z,86.18
2023-04-23T07:30:05.060Z,87.31
2023-04-23T07:32:32.964Z,87.05
2023-04-23T07:35:00.470Z,89.71
2023-04-23T07:37:27.951Z,87.94
2023-04-23T07:39:55.457Z,85.36
2023-04-23T07:42:24.421Z,86.14
2023-04-23T07:44:51.857Z,86.05
2023-04-23T07:47:19.306Z,86.46
2023-04-23T07:49:46.792Z,86.02
2023-04-23T07:52:15.466Z,84.46
2023-04-23T07:54:42.919Z,83.58
2023-04-23T07:57:11.397Z,84.92
2023-04-23T07:59:40.371Z,87.53
2023-04-23T08:02:08.034Z,90.79
2023-04-23T08:04:35.694Z,92.26
2023-04-23T08:07:03.619Z,91.67
2023-04-23T08:09:31.126Z,92.69
2023-04-23T08:11:58.579Z,92.47
2023-04-23T08:14:25.998Z,92.17
2023-04-23T08:16:54.806Z,93.03
2023-04-23T08:19:22.237Z,92.21
2023-04-23T08:21:50.025Z,91.40
2023-04-23T08:24:17.520Z,91.25
2023-04-23T08:26:46.529Z,91.09
2023-04-23T08:29:13.970Z,88.11
2023-04-23T08:31:41.530Z,87.70
2023-04-23T08:34:10.346Z,85.70
2023-04-23T08:36:37.771Z,81.90
2023-04-23T08:39:05.886Z,85.60
2023-04-23T08:41:36.543Z,82.94
2023-04-23T08:44:12.954Z,82.20
2023-04-23T08:46:43.655Z,79.47
2023-04-23T08:49:16.438Z,79.63
2023-04-23T08:51:49.208Z,77.06
2023-04-23T08:54:22.420Z,77.16
2023-04-23T08:56:51.650Z,75.55
2023-04-23T08:59:21.176Z,76.09
2023-04-23T09:01:49.032Z,74.94
2023-04-23T09:04:20.982Z,75.21
2023-04-23T09:06:48.484Z,74.80
2023-04-23T09:09:17.356Z,73.61
2023-04-23T09:11:45.495Z,75.22
2023-04-23T09:14:14.089Z,75.55
2023-04-23T09:16:42.510Z,75.79
2023-04-23T09:19:10.801Z,75.38
2023-04-23T09:21:40.861Z,75.59
2023-04-23T09:24:11.960Z,74.30
2023-04-23T09:26:45.380Z,75.50
2023-04-23T09:29:17.255Z,75.08
2023-04-23T09:31:45.368Z,74.91
2023-04-23T09:34:12.880Z,74.54
2023-04-23T09:36:41.670Z,75.41
2023-04-23T09:39:13.584Z,75.09
2023-04-23T09:41:41.103Z,75.35
2023-04-23T09:44:08.913Z,75.10
2023-04-23T09:46:38.514Z,75.33
2023-04-23T09:49:08.486Z,75.37
2023-04-23T09:51:37.568Z,75.17
2023-04-23T09:54:11.470Z,74.71
2023-04-23T09:56:39.080Z,74.82
2023-04-23T09:59:23.030Z,72.91
2023-04-23T10:01:57.492Z,71.74
2023-04-23T10:04:26.261Z,70.86
2023-04-23T10:09:28.613Z,71.70
2023-04-23T10:11:57.284Z,72.09
2023-04-23T10:14:26.749Z,72.39
2023-04-23T10:17:00.119Z,72.02
2023-04-23T10:19:28.980Z,71.55
2023-04-23T10:24:33.933Z,72.15
2023-04-23T10:27:04.004Z,71.91
2023-04-23T10:29:33.086Z,71.61
2023-04-23T10:32:02.276Z,71.76
2023-04-23T10:34:31.576Z,71.75
2023-04-23T10:37:00.270Z,71.31
2023-04-23T10:39:30.857Z,72.06
2023-04-23T10:42:00.867Z,71.36
2023-04-23T10:44:56.500Z,71.00
2023-04-23T10:47:22.869Z,69.85
2023-04-23T10:49:51.548Z,69.96
2023-04-23T10:52:22.777Z,69.98
2023-04-23T10:55:21.185Z,69.78
2023-04-23T10:58:02.631Z,69.26
2023-04-23T11:00:43.958Z,68.70
2023-04-23T11:03:33.503Z,66.57
2023-04-23T11:06:04.537Z,65.46
2023-04-23T11:08:33.070Z,65.28
2023-04-23T11:11:02.298Z,63.53
2023-04-23T11:13:31.167Z,62.93
2023-04-23T11:16:15.821Z,60.96
2023-04-23T11:18:59.608Z,62.93
2023-04-23T11:21:57.422Z,60.70
2023-04-23T11:24:25.296Z,62.80
2023-04-23T11:26:53.355Z,62.12
2023-04-23T11:29:24.554Z,62.39
2023-04-23T11:32:01.733Z,60.29
2023-04-23T11:34:30.632Z,62.47
2023-04-23T11:37:00.294Z,62.74
2023-04-23T11:39:28.266Z,62.16
2023-04-23T11:41:56.943Z,60.47
2023-04-23T11:44:25.836Z,61.40
2023-04-23T11:46:53.387Z,60.78
2023-04-23T11:49:22.278Z,61.12
2023-04-23T11:51:49.774Z,60.53
2023-04-23T11:54:17.204Z,61.91
2023-04-23T11:56:45.621Z,61.35
2023-04-23T11:59:13.063Z,61.30
2023-04-23T12:01:43.338Z,60.07
2023-04-23T12:04:15.101Z,61.96
2023-04-23T12:06:44.283Z,62.70
2023-04-23T12:09:12.754Z,61.79
2023-04-23T12:11:41.749Z,61.23
2023-04-23T12:14:10.350Z,60.96
2023-04-23T12:16:39.569Z,63.06
2023-04-23T12:19:13.735Z,63.21
2023-04-23T12:21:55.038Z,63.49
2023-04-23T12:24:23.601Z,64.02
2023-04-23T12:26:54.389Z,63.88
2023-04-23T12:29:23.149Z,63.13
2023-04-23T12:31:52.139Z,64.88
2023-04-23T12:34:21.895Z,64.47
2023-04-23T12:36:51.333Z,64.18
2023-04-23T12:39:24.484Z,63.75
2023-04-23T12:41:53.214Z,64.65
2023-04-23T12:44:21.468Z,64.45
2023-04-23T12:46:51.093Z,62.87
2023-04-23T12:49:18.610Z,64.32
2023-04-23T12:51:47.517Z,64.93
2023-04-23T12:54:15.008Z,64.04
2023-04-23T12:56:42.440Z,63.52
2023-04-23T12:59:09.956Z,63.27
2023-04-23T13:01:37.470Z,64.31
2023-04-23T13:04:05.437Z,63.49
2023-04-23T13:06:32.938Z,64.25
2023-04-23T13:09:03.364Z,62.71
2023-04-23T13:11:30.823Z,63.49
2023-04-23T13:13:58.260Z,62.45
2023-04-23T13:16:25.829Z,63.20
2023-04-23T13:18:53.410Z,62.80
2023-04-23T13:21:20.898Z,62.98
2023-04-23T13:23:48.434Z,62.43
2023-04-23T13:26:17.338Z,61.98
2023-04-23T13:28:44.861Z,61.43
2023-04-23T13:31:12.772Z,60.71
2023-04-23T13:33:40.586Z,60.46
2023-04-23T13:36:09.395Z,59.95
2023-04-23T13:38:36.930Z,61.43
2023-04-23T13:41:04.428Z,59.78
2023-04-23T13:43:33.218Z,57.82
2023-04-23T13:46:01.191Z,60.24
2023-04-23T13:48:31.135Z,61.24
2023-04-23T13:50:59.527Z,60.32
2023-04-23T13:53:27.803Z,61.08
2023-04-23T13:55:55.729Z,61.05
2023-04-23T13:58:24.051Z,61.01
2023-04-23T14:00:53.035Z,60.64
2023-04-23T14:03:21.098Z,60.40
2023-04-23T14:05:48.654Z,61.57
2023-04-23T14:08:16.193Z,61.42
2023-04-23T14:10:43.906Z,61.08
2023-04-23T14:13:11.436Z,61.46
2023-04-23T14:15:38.937Z,61.95
2023-04-23T14:18:07.941Z,63.59
2023-04-23T14:20:35.443Z,64.13
2023-04-23T14:23:04.699Z,64.00
2023-04-23T14:25:36.949Z,63.70
2023-04-23T14:28:24.854Z,63.47
2023-04-23T14:30:56.109Z,63.54
2023-04-23T14:33:24.974Z,63.39
2023-04-23T14:35:52.495Z,61.84
2023-04-23T14:38:19.999Z,62.06
2023-04-23T14:40:47.652Z,59.95
2023-04-23T14:43:16.304Z,61.22
2023-04-23T14:45:44.069Z,62.85
2023-04-23T14:48:11.704Z,58.87
2023-04-23T14:50:40.574Z,62.41
2023-04-23T14:53:10.125Z,62.65
2023-04-23T14:55:38.670Z,60.69
2023-04-23T14:58:06.282Z,59.28
2023-04-23T15:00:34.578Z,56.46
2023-04-23T15:03:08.333Z,60.83
2023-04-23T15:05:35.965Z,60.72
2023-04-23T15:08:04.845Z,57.42
2023-04-23T15:10:32.313Z,58.04
2023-04-23T15:13:08.206Z,57.69
2023-04-23T15:15:45.342Z,57.99
2023-04-23T15:18:16.000Z,58.65
2023-04-23T15:20:43.804Z,58.36
2023-04-23T15:23:12.617Z,57.41
2023-04-23T15:25:40.848Z,56.89
2023-04-23T15:28:08.229Z,56.26
2023-04-23T15:30:35.900Z,55.78
2023-04-23T15:33:03.493Z,56.15
2023-04-23T15:35:31.083Z,55.66
2023-04-23T15:37:58.511Z,57.82
2023-04-23T15:40:29.272Z,58.37
2023-04-23T15:42:56.736Z,58.32
2023-04-23T15:45:24.248Z,56.22
2023-04-23T15:47:52.565Z,56.73
2023-04-23T15:50:22.366Z,53.97
2023-04-23T15:52:50.524Z,55.60
2023-04-23T15:55:18.200Z,53.77
2023-04-23T15:57:47.329Z,55.51
2023-04-23T16:00:16.798Z,55.41
2023-04-23T16:02:44.417Z,56.48
2023-04-23T16:05:12.783Z,57.41
2023-04-23T16:07:40.101Z,57.20
2023-04-23T16:10:08.948Z,58.46
2023-04-23T16:12:36.894Z,57.03
2023-04-23T16:15:06.725Z,56.85
2023-04-23T16:17:34.341Z,56.76
2023-04-23T16:20:01.821Z,57.77
2023-04-23T16:22:29.389Z,57.76
2023-04-23T16:24:56.909Z,57.84
2023-04-23T16:27:24.513Z,57.50
2023-04-23T16:29:52.519Z,57.54
2023-04-23T16:32:21.659Z,58.55
2023-04-23T16:34:49.317Z,58.49
2023-04-23T16:37:16.910Z,58.43
2023-04-23T16:39:44.488Z,59.26
2023-04-23T16:42:11.958Z,58.80
2023-04-23T16:44:39.514Z,58.70
2023-04-23T16:47:07.200Z,58.89
2023-04-23T16:49:36.124Z,58.68
2023-04-23T16:52:03.719Z,59.04
2023-04-23T16:54:31.741Z,58.96
2023-04-23T16:56:59.209Z,61.47
2023-04-23T16:59:28.409Z,60.18
2023-04-23T17:01:56.014Z,61.03
2023-04-23T17:04:23.929Z,62.49
2023-04-23T17:06:52.846Z,63.81
2023-04-23T17:09:20.565Z,63.89
2023-04-23T17:11:48.052Z,65.04
2023-04-23T17:14:15.510Z,66.48
2023-04-23T17:16:44.324Z,66.22
2023-04-23T17:19:12.073Z,66.18
2023-04-23T17:21:39.692Z,67.58
2023-04-23T17:24:08.572Z,66.97
2023-04-23T17:26:37.797Z,67.19
2023-04-23T17:29:05.305Z,68.73
2023-04-23T17:31:33.613Z,68.17
2023-04-23T17:34:01.778Z,67.87
2023-04-23T17:36:29.286Z,68.36
2023-04-23T17:38:56.807Z,68.17
2023-04-23T17:41:25.778Z,67.17
2023-04-23T17:43:53.790Z,70.05
2023-04-23T17:46:21.412Z,69.46
2023-04-23T17:48:49.123Z,68.25
2023-04-23T17:51:16.832Z,71.60
2023-04-23T17:53:48.151Z,71.02
2023-04-23T17:56:15.714Z,70.17
2023-04-23T17:58:45.046Z,70.30
2023-04-23T18:01:12.562Z,69.27
2023-04-23T18:03:40.218Z,72.03
2023-04-23T18:06:11.690Z,70.37
2023-04-23T18:08:40.579Z,71.81
2023-04-23T18:11:09.541Z,71.66
2023-04-23T18:13:37.218Z,72.68
2023-04-23T18:16:06.057Z,71.95
2023-04-23T18:18:33.539Z,72.61
2023-04-23T18:21:02.750Z,74.86
2023-04-23T18:23:31.194Z,72.57
2023-04-23T18:26:01.264Z,71.94
2023-04-23T18:28:29.043Z,74.65
2023-04-23T18:31:01.967Z,76.25
2023-04-23T18:33:48.626Z,79.13
2023-04-23T18:36:21.785Z,78.12
2023-04-23T18:38:49.744Z,77.75
2023-04-23T18:41:17.329Z,75.70
2023-04-23T18:43:44.776Z,78.21
2023-04-23T18:46:12.444Z,78.10
2023-04-23T18:48:59.580Z,77.02
2023-04-23T18:51:33.061Z,79.07
2023-04-23T18:54:01.669Z,83.62
2023-04-23T18:56:29.269Z,85.22
2023-04-23T18:58:56.736Z,85.01
2023-04-23T19:01:27.628Z,86.43
2023-04-23T19:03:57.471Z,85.87
2023-04-23T19:06:25.215Z,85.02
2023-04-23T19:08:52.649Z,84.97
2023-04-23T19:11:20.223Z,85.96
2023-04-23T19:13:47.696Z,84.16
2023-04-23T19:16:16.683Z,83.24
2023-04-23T19:18:44.362Z,83.91
2023-04-23T19:21:13.194Z,86.82
2023-04-23T19:23:40.791Z,84.34
2023-04-23T19:26:08.290Z,85.88
2023-04-23T19:28:35.763Z,84.82
2023-04-23T19:31:04.172Z,86.92
2023-04-23T19:33:31.769Z,83.29
2023-04-23T19:35:59.257Z,85.63
2023-04-23T19:38:28.058Z,85.90
2023-04-23T19:40:56.782Z,84.83
2023-04-23T19:43:24.314Z,84.28
2023-04-23T19:45:51.794Z,83.22
2023-04-23T19:48:19.339Z,82.97
2023-04-23T19:50:47.852Z,82.49
2023-04-23T19:53:15.764Z,83.59
2023-04-23T19:55:44.567Z,82.71
2023-04-23T19:58:12.706Z,86.13
2023-04-23T20:00:41.607Z,82.80
2023-04-23T20:03:09.811Z,83.17
2023-04-23T20:05:37.461Z,83.00
2023-04-23T20:08:11.274Z,82.67
2023-04-23T20:10:38.824Z,82.33
2023-04-23T20:13:07.664Z,82.29
2023-04-23T20:15:35.114Z,82.44
2023-04-23T20:18:02.751Z,82.95
2023-04-23T20:20:30.307Z,82.19
2023-04-23T20:22:57.774Z,81.93
2023-04-23T20:25:25.975Z,82.13
2023-04-23T20:27:56.747Z,82.62
2023-04-23T20:30:25.877Z,82.72
2023-04-23T20:32:53.423Z,83.32
2023-04-23T20:35:20.899Z,83.62
2023-04-23T20:37:49.543Z,83.22
2023-04-23T20:40:17.346Z,82.19
2023-04-23T20:42:46.332Z,84.54
2023-04-23T20:45:14.309Z,82.78
2023-04-23T20:47:44.355Z,83.48
2023-04-23T20:50:12.328Z,82.40
2023-04-23T20:52:42.266Z,82.63
2023-04-23T20:55:10.539Z,83.52
2023-04-23T20:57:38.039Z,83.46
2023-04-23T21:00:11.656Z,84.15
2023-04-23T21:02:39.528Z,82.58
2023-04-23T21:05:09.301Z,82.46
2023-04-23T21:07:36.833Z,81.79
2023-04-23T21:10:04.772Z,81.23
2023-04-23T21:12:32.782Z,83.90
2023-04-23T21:15:00.934Z,84.96
2023-04-23T21:17:28.474Z,83.74
2023-04-23T21:19:56.022Z,82.97
2023-04-23T21:22:24.875Z,81.88
2023-04-23T21:24:52.335Z,80.49
2023-04-23T21:27:21.668Z,81.44
2023-04-23T21:29:49.804Z,82.00
2023-04-23T21:32:17.469Z,82.56
2023-04-23T21:34:44.983Z,82.11
2023-04-23T21:37:12.438Z,81.96
2023-04-23T21:39:41.461Z,82.19
2023-04-23T21:42:09.001Z,82.14
2023-04-23T21:44:36.623Z,82.58
2023-04-23T21:47:04.613Z,82.76
2023-04-23T21:49:32.649Z,82.78
2023-04-23T21:52:00.382Z,82.87
2023-04-23T21:54:27.816Z,84.07
2023-04-23T21:56:56.670Z,84.27
2023-04-23T21:59:24.796Z,85.29
2023-04-23T22:01:52.338Z,85.06
2023-04-23T22:04:22.121Z,83.95
2023-04-23T22:06:51.116Z,82.80
2023-04-23T22:09:18.734Z,83.57
2023-04-23T22:12:00.803Z,80.72
2023-04-23T22:14:31.025Z,81.42
2023-04-23T22:16:59.483Z,80.87
2023-04-23T22:19:26.857Z,83.38
2023-04-23T22:21:55.005Z,81.60
2023-04-23T22:24:22.474Z,82.27
2023-04-23T22:26:50.047Z,82.57
2023-04-23T22:29:17.666Z,83.31
2023-04-23T22:31:46.439Z,82.53
2023-04-23T22:34:13.923Z,84.42
2023-04-23T22:36:43.052Z,82.16
2023-04-23T22:39:12.413Z,82.93
2023-04-23T22:41:40.323Z,84.64
2023-04-23T22:44:09.118Z,86.37
2023-04-23T22:46:37.169Z,80.38
2023-04-23T22:49:08.023Z,92.88
2023-04-23T22:51:38.614Z,83.24
2023-04-23T22:54:06.101Z,82.06
2023-04-23T22:56:34.127Z,79.81
2023-04-23T22:59:01.564Z,80.19
2023-04-23T23:01:29.053Z,78.62
2023-04-23T23:03:56.684Z,86.22
2023-04-23T23:06:26.442Z,84.08
2023-04-23T23:08:53.939Z,83.06
2023-04-23T23:11:21.506Z,82.66
2023-04-23T23:13:49.178Z,82.25
2023-04-23T23:16:17.358Z,80.82
2023-04-23T23:18:44.946Z,81.81
2023-04-23T23:21:12.454Z,81.61
2023-04-23T23:23:41.458Z,82.22
2023-04-23T23:26:09.387Z,82.68
2023-04-23T23:28:36.828Z,82.21
2023-04-23T23:31:04.488Z,82.16
2023-04-23T23:33:32.096Z,82.66
2023-04-23T23:35:59.582Z,81.70
2023-04-23T23:38:27.071Z,81.68
2023-04-23T23:40:55.897Z,81.65
2023-04-23T23:43:23.409Z,82.01
2023-04-23T23:45:50.842Z,82.02
2023-04-23T23:48:18.745Z,82.07
2023-04-23T23:50:46.382Z,82.09
2023-04-23T23:53:13.833Z,83.51
2023-04-23T23:55:41.329Z,83.70
2023-04-23T23:58:10.106Z,83.55
